createdAt,value
2022-12-01T00:00:31.162Z,91.71
2022-12-01T00:01:02.995Z,91.77
2022-12-01T00:01:34.583Z,91.65
2022-12-01T00:02:06.297Z,91.72
2022-12-01T00:02:38.177Z,91.77
2022-12-01T00:03:10.205Z,92.08
2022-12-01T00:03:41.915Z,92.23
2022-12-01T00:04:13.473Z,92.35
2022-12-01T00:04:45.063Z,92.55
2022-12-01T00:05:16.654Z,92.73
2022-12-01T00:05:48.396Z,92.68
2022-12-01T00:06:21.504Z,92.50
2022-12-01T00:06:53.107Z,92.30
2022-12-01T00:07:24.734Z,92.21
2022-12-01T00:07:57.721Z,92.12
2022-12-01T00:08:29.931Z,92.07
2022-12-01T00:09:20.619Z,91.89
2022-12-01T00:10:10.812Z,91.62
2022-12-01T00:10:42.377Z,91.29
2022-12-01T00:11:13.927Z,91.52
2022-12-01T00:11:45.482Z,91.49
2022-12-01T00:12:17.118Z,91.44
2022-12-01T00:12:48.721Z,91.41
2022-12-01T00:13:20.511Z,91.41
2022-12-01T00:13:52.113Z,91.40
2022-12-01T00:14:23.786Z,91.35
2022-12-01T00:15:00.929Z,91.21
2022-12-01T00:15:36.906Z,91.47
2022-12-01T00:16:26.388Z,91.92
2022-12-01T00:16:58.137Z,91.74
2022-12-01T00:17:30.247Z,91.50
2022-12-01T00:18:05.562Z,91.86
2022-12-01T00:18:37.261Z,92.03
2022-12-01T00:19:08.857Z,92.86
2022-12-01T00:19:40.434Z,93.37
2022-12-01T00:20:12.591Z,93.39
2022-12-01T00:20:44.226Z,93.41
2022-12-01T00:21:21.040Z,93.46
2022-12-01T00:21:52.792Z,93.23
2022-12-01T00:22:24.430Z,93.14
2022-12-01T00:22:55.999Z,93.34
2022-12-01T00:23:27.583Z,93.32
2022-12-01T00:23:59.163Z,93.39
2022-12-01T00:24:30.757Z,93.32
2022-12-01T00:25:02.350Z,93.41
2022-12-01T00:25:33.922Z,93.65
2022-12-01T00:26:06.209Z,93.67
2022-12-01T00:26:38.646Z,93.51
2022-12-01T00:27:10.266Z,93.54
2022-12-01T00:27:42.165Z,93.62
2022-12-01T00:28:13.759Z,93.67
2022-12-01T00:28:49.787Z,93.51
2022-12-01T00:29:21.345Z,93.45
2022-12-01T00:29:52.935Z,93.12
2022-12-01T00:30:24.626Z,92.88
2022-12-01T00:30:56.238Z,92.68
2022-12-01T00:31:28.131Z,92.92
2022-12-01T00:31:59.808Z,92.93
2022-12-01T00:32:31.479Z,92.78
2022-12-01T00:33:03.084Z,92.71
2022-12-01T00:33:34.679Z,92.61
2022-12-01T00:34:11.040Z,92.40
2022-12-01T00:34:43.019Z,92.04
2022-12-01T00:35:16.038Z,92.43
2022-12-01T00:35:47.639Z,92.61
2022-12-01T00:36:19.651Z,92.58
2022-12-01T00:36:51.934Z,92.80
2022-12-01T00:37:23.506Z,92.81
2022-12-01T00:37:55.526Z,92.50
2022-12-01T00:38:27.963Z,92.81
2022-12-01T00:38:59.520Z,93.06
2022-12-01T00:39:31.099Z,92.97
2022-12-01T00:40:04.435Z,92.69
2022-12-01T00:40:36.080Z,92.92
2022-12-01T00:41:07.701Z,93.19
2022-12-01T00:41:39.318Z,93.19
2022-12-01T00:42:13.472Z,93.67
2022-12-01T00:42:45.272Z,93.85
2022-12-01T00:43:16.866Z,94.12
2022-12-01T00:43:48.542Z,94.12
2022-12-01T00:44:20.140Z,94.18
2022-12-01T00:44:51.919Z,94.27
2022-12-01T00:45:23.507Z,94.42
2022-12-01T00:45:56.430Z,94.42
2022-12-01T00:46:28.147Z,94.22
2022-12-01T00:46:59.746Z,94.31
2022-12-01T00:47:31.366Z,94.32
2022-12-01T00:48:02.991Z,94.33
2022-12-01T00:48:34.664Z,94.35
2022-12-01T00:49:06.425Z,94.75
2022-12-01T00:49:38.032Z,94.75
2022-12-01T00:50:09.917Z,94.55
2022-12-01T00:50:41.956Z,94.54
2022-12-01T00:51:13.550Z,94.53
2022-12-01T00:51:45.169Z,94.51
2022-12-01T00:52:17.517Z,94.54
2022-12-01T00:52:49.363Z,94.60
2022-12-01T00:53:21.546Z,94.75
2022-12-01T00:53:53.114Z,94.51
2022-12-01T00:54:24.813Z,94.20
2022-12-01T00:54:56.508Z,94.27
2022-12-01T00:55:28.078Z,94.15
2022-12-01T00:55:59.904Z,94.04
2022-12-01T00:56:31.697Z,93.81
2022-12-01T00:57:03.518Z,94.26
2022-12-01T00:57:35.138Z,94.50
2022-12-01T00:58:07.699Z,94.69
2022-12-01T00:58:39.322Z,94.45
2022-12-01T00:59:11.628Z,94.12
2022-12-01T00:59:43.277Z,93.84
2022-12-01T01:00:15.682Z,93.50
2022-12-01T01:00:47.457Z,93.49
2022-12-01T01:01:19.772Z,93.58
2022-12-01T01:01:51.758Z,93.46
2022-12-01T01:02:24.640Z,93.09
2022-12-01T01:02:56.348Z,93.00
2022-12-01T01:03:29.603Z,92.91
2022-12-01T01:04:01.222Z,92.97
2022-12-01T01:04:35.384Z,93.16
2022-12-01T01:05:07.430Z,92.97
2022-12-01T01:05:40.559Z,93.03
2022-12-01T01:06:12.855Z,93.00
2022-12-01T01:06:44.559Z,93.06
2022-12-01T01:07:16.237Z,92.93
2022-12-01T01:07:47.890Z,93.19
2022-12-01T01:08:19.627Z,92.96
2022-12-01T01:08:51.426Z,93.07
2022-12-01T01:09:23.076Z,93.24
2022-12-01T01:09:54.616Z,93.29
2022-12-01T01:10:26.232Z,93.14
2022-12-01T01:10:59.943Z,92.99
2022-12-01T01:11:32.031Z,92.90
2022-12-01T01:12:03.691Z,93.24
2022-12-01T01:12:35.304Z,93.80
2022-12-01T01:13:06.893Z,93.55
2022-12-01T01:13:38.861Z,93.39
2022-12-01T01:14:10.859Z,93.45
2022-12-01T01:14:42.451Z,93.48
2022-12-01T01:15:14.081Z,93.72
2022-12-01T01:15:45.741Z,93.85
2022-12-01T01:16:22.057Z,94.09
2022-12-01T01:16:55.249Z,94.50
2022-12-01T01:17:26.857Z,94.70
2022-12-01T01:17:58.458Z,94.70
2022-12-01T01:18:31.005Z,94.89
2022-12-01T01:19:02.710Z,94.95
2022-12-01T01:19:34.348Z,94.90
2022-12-01T01:20:06.955Z,94.73
2022-12-01T01:20:38.537Z,94.46
2022-12-01T01:21:13.868Z,94.24
2022-12-01T01:21:45.588Z,94.03
2022-12-01T01:22:17.250Z,93.87
2022-12-01T01:22:48.831Z,93.88
2022-12-01T01:23:20.399Z,94.13
2022-12-01T01:23:53.178Z,94.07
2022-12-01T01:24:24.737Z,94.18
2022-12-01T01:24:56.367Z,94.15
2022-12-01T01:25:27.938Z,94.18
2022-12-01T01:26:27.519Z,94.13
2022-12-01T01:26:59.164Z,94.64
2022-12-01T01:27:30.727Z,94.57
2022-12-01T01:28:02.285Z,94.39
2022-12-01T01:28:34.157Z,94.68
2022-12-01T01:29:07.749Z,94.82
2022-12-01T01:29:39.296Z,94.93
2022-12-01T01:30:11.686Z,94.83
2022-12-01T01:30:43.308Z,94.30
2022-12-01T01:31:18.773Z,94.03
2022-12-01T01:31:51.209Z,94.02
2022-12-01T01:32:22.801Z,94.22
2022-12-01T01:32:54.466Z,94.45
2022-12-01T01:33:26.106Z,94.81
2022-12-01T01:33:58.750Z,94.96
2022-12-01T01:34:30.388Z,94.93
2022-12-01T01:35:01.941Z,95.13
2022-12-01T01:35:33.547Z,95.23
2022-12-01T01:36:06.037Z,95.49
2022-12-01T01:36:37.596Z,95.54
2022-12-01T01:37:09.246Z,95.62
2022-12-01T01:37:40.807Z,95.64
2022-12-01T01:38:12.430Z,95.51
2022-12-01T01:38:44.142Z,95.40
2022-12-01T01:39:16.435Z,95.24
2022-12-01T01:39:48.212Z,94.88
2022-12-01T01:40:19.955Z,94.56
2022-12-01T01:40:51.632Z,94.68
2022-12-01T01:41:23.929Z,94.70
2022-12-01T01:41:55.549Z,94.39
2022-12-01T01:42:27.192Z,94.33
2022-12-01T01:42:58.743Z,94.32
2022-12-01T01:43:58.895Z,93.93
2022-12-01T01:44:49.235Z,93.49
2022-12-01T01:45:28.835Z,93.66
2022-12-01T01:46:00.479Z,93.81
2022-12-01T01:46:33.984Z,93.65
2022-12-01T01:47:07.007Z,93.49
2022-12-01T01:47:40.732Z,93.51
2022-12-01T01:48:13.774Z,94.08
2022-12-01T01:49:00.733Z,94.32
2022-12-01T01:49:32.315Z,93.55
2022-12-01T01:50:14.878Z,93.76
2022-12-01T01:50:46.489Z,94.29
2022-12-01T01:51:22.518Z,94.39
2022-12-01T01:51:55.348Z,94.78
2022-12-01T01:52:28.175Z,95.01
2022-12-01T01:53:04.839Z,95.21
2022-12-01T01:53:36.477Z,95.14
2022-12-01T01:54:15.646Z,95.08
2022-12-01T01:54:50.620Z,95.18
2022-12-01T01:55:22.267Z,95.13
2022-12-01T01:55:53.924Z,94.74
2022-12-01T01:56:25.607Z,94.41
2022-12-01T01:56:59.976Z,94.37
2022-12-01T01:57:33.431Z,94.57
2022-12-01T01:58:08.752Z,94.53
2022-12-01T01:58:41.554Z,94.17
2022-12-01T01:59:16.762Z,93.70
2022-12-01T01:59:55.244Z,94.31
2022-12-01T02:01:07.315Z,94.15
2022-12-01T02:01:39.084Z,94.08
2022-12-01T02:02:12.483Z,94.30
2022-12-01T02:02:46.183Z,94.15
2022-12-01T02:03:19.528Z,93.70
2022-12-01T02:03:54.360Z,93.54
2022-12-01T02:04:26.963Z,93.38
2022-12-01T02:05:02.493Z,93.18
2022-12-01T02:05:35.871Z,93.70
2022-12-01T02:06:09.535Z,93.98
2022-12-01T02:06:41.199Z,93.85
2022-12-01T02:07:15.408Z,93.73
2022-12-01T02:07:48.578Z,93.62
2022-12-01T02:08:20.265Z,93.32
2022-12-01T02:08:51.964Z,93.84
2022-12-01T02:09:23.555Z,94.21
2022-12-01T02:09:55.586Z,94.19
2022-12-01T02:11:08.583Z,94.04
2022-12-01T02:12:05.028Z,94.12
2022-12-01T02:13:03.503Z,94.43
2022-12-01T02:13:51.326Z,94.53
2022-12-01T02:14:42.735Z,94.82
2022-12-01T02:15:37.452Z,94.54
2022-12-01T02:16:22.716Z,94.34
2022-12-01T02:17:26.603Z,94.01
2022-12-01T02:18:39.726Z,94.53
2022-12-01T02:19:35.689Z,94.82
2022-12-01T02:20:47.851Z,94.61
2022-12-01T02:21:24.051Z,94.76
2022-12-01T02:22:14.039Z,94.78
2022-12-01T02:23:23.339Z,94.94
2022-12-01T02:24:39.198Z,94.76
2022-12-01T02:25:28.591Z,94.92
2022-12-01T02:26:30.988Z,94.90
2022-12-01T02:27:16.820Z,94.81
2022-12-01T02:28:14.259Z,94.20
2022-12-01T02:28:45.818Z,93.96
2022-12-01T02:29:52.008Z,93.67
2022-12-01T02:30:44.432Z,93.37
2022-12-01T02:31:29.206Z,93.70
2022-12-01T02:32:05.259Z,93.84
2022-12-01T02:33:01.758Z,93.59
2022-12-01T02:33:40.864Z,93.60
2022-12-01T02:34:25.629Z,93.66
2022-12-01T02:35:29.878Z,93.60
2022-12-01T02:36:13.247Z,93.75
2022-12-01T02:36:58.064Z,93.69
2022-12-01T02:37:48.699Z,94.01
2022-12-01T02:38:39.789Z,93.96
2022-12-01T02:39:29.421Z,94.14
2022-12-01T02:40:45.221Z,94.40
2022-12-01T02:41:43.486Z,94.67
2022-12-01T02:42:40.082Z,94.74
2022-12-01T02:43:30.754Z,94.76
2022-12-01T02:44:08.225Z,94.78
2022-12-01T02:44:44.198Z,94.95
2022-12-01T02:45:28.210Z,94.73
2022-12-01T02:46:05.897Z,93.87
2022-12-01T02:46:41.939Z,94.19
2022-12-01T02:47:17.547Z,94.17
2022-12-01T02:47:52.411Z,94.02
2022-12-01T02:48:28.598Z,94.10
2022-12-01T02:49:07.814Z,94.26
2022-12-01T02:49:49.637Z,94.18
2022-12-01T02:50:23.483Z,93.88
2022-12-01T02:50:58.588Z,93.91
2022-12-01T02:51:32.460Z,94.19
2022-12-01T02:52:06.695Z,94.20
2022-12-01T02:52:40.378Z,94.42
2022-12-01T02:53:15.722Z,94.16
2022-12-01T02:53:47.679Z,94.30
2022-12-01T02:54:20.330Z,93.79
2022-12-01T02:54:52.582Z,93.75
2022-12-01T02:55:24.151Z,94.04
2022-12-01T02:55:58.666Z,93.81
2022-12-01T02:56:30.406Z,93.80
2022-12-01T02:57:02.060Z,93.65
2022-12-01T02:57:33.670Z,93.53
2022-12-01T02:58:14.122Z,93.31
2022-12-01T02:58:45.688Z,93.37
2022-12-01T02:59:17.245Z,93.49
2022-12-01T02:59:54.184Z,93.66
2022-12-01T03:00:26.248Z,93.24
2022-12-01T03:01:09.365Z,93.30
2022-12-01T03:01:43.861Z,93.69
2022-12-01T03:02:24.756Z,93.49
2022-12-01T03:03:13.132Z,93.44
2022-12-01T03:04:25.996Z,93.29
2022-12-01T03:05:29.814Z,93.96
2022-12-01T03:06:12.682Z,94.22
2022-12-01T03:07:04.274Z,94.61
2022-12-01T03:07:54.191Z,94.67
2022-12-01T03:09:09.342Z,94.30
2022-12-01T03:09:58.524Z,94.39
2022-12-01T03:10:44.249Z,94.53
2022-12-01T03:11:27.783Z,94.53
2022-12-01T03:12:08.178Z,94.35
2022-12-01T03:12:45.454Z,94.33
2022-12-01T03:13:22.832Z,94.49
2022-12-01T03:14:09.107Z,94.41
2022-12-01T03:14:56.675Z,94.45
2022-12-01T03:15:39.916Z,94.31
2022-12-01T03:16:11.523Z,94.40
2022-12-01T03:16:54.073Z,94.29
2022-12-01T03:17:36.370Z,94.91
2022-12-01T03:18:43.384Z,94.46
2022-12-01T03:19:22.426Z,94.71
2022-12-01T03:20:00.946Z,94.46
2022-12-01T03:20:40.911Z,93.89
2022-12-01T03:21:42.188Z,93.68
2022-12-01T03:22:39.512Z,93.80
2022-12-01T03:23:19.908Z,93.83
2022-12-01T03:24:05.704Z,93.29
2022-12-01T03:24:40.375Z,93.76
2022-12-01T03:25:14.412Z,93.76
2022-12-01T03:25:49.237Z,93.31
2022-12-01T03:26:24.337Z,93.27
2022-12-01T03:26:58.511Z,93.32
2022-12-01T03:27:35.123Z,93.26
2022-12-01T03:28:24.893Z,93.30
2022-12-01T03:29:00.271Z,93.31
2022-12-01T03:29:41.433Z,93.53
2022-12-01T03:30:14.230Z,93.89
2022-12-01T03:30:48.666Z,93.94
2022-12-01T03:31:25.891Z,94.07
2022-12-01T03:32:04.157Z,94.36
2022-12-01T03:32:47.550Z,94.21
2022-12-01T03:33:25.555Z,94.20
2022-12-01T03:34:00.918Z,94.12
2022-12-01T03:34:40.678Z,94.59
2022-12-01T03:35:38.844Z,94.67
2022-12-01T03:36:15.265Z,94.73
2022-12-01T03:36:55.800Z,94.70
2022-12-01T03:37:36.479Z,94.38
2022-12-01T03:38:29.816Z,94.18
2022-12-01T03:39:08.917Z,94.13
2022-12-01T03:39:42.850Z,94.34
2022-12-01T03:40:18.399Z,94.29
2022-12-01T03:40:52.998Z,94.23
2022-12-01T03:41:29.177Z,93.46
2022-12-01T03:42:14.158Z,92.76
2022-12-01T03:42:45.690Z,92.22
2022-12-01T03:43:21.650Z,92.45
2022-12-01T03:43:58.631Z,92.46
2022-12-01T03:44:36.878Z,91.84
2022-12-01T03:45:14.968Z,90.31
2022-12-01T03:45:46.603Z,89.18
2022-12-01T03:46:56.832Z,88.24
2022-12-01T03:47:32.501Z,87.54
2022-12-01T03:48:04.900Z,86.45
2022-12-01T03:48:38.229Z,86.31
2022-12-01T03:49:10.440Z,85.97
2022-12-01T03:49:43.039Z,85.86
2022-12-01T03:50:16.438Z,85.44
2022-12-01T03:51:05.798Z,85.26
2022-12-01T03:51:49.623Z,85.08
2022-12-01T03:52:37.649Z,84.69
2022-12-01T03:53:19.311Z,84.44
2022-12-01T03:54:09.685Z,83.96
2022-12-01T03:55:20.454Z,84.08
2022-12-01T03:55:57.627Z,84.44
2022-12-01T03:56:35.572Z,84.09
2022-12-01T03:57:13.461Z,83.94
2022-12-01T03:57:50.222Z,83.82
2022-12-01T03:58:34.376Z,83.77
2022-12-01T03:59:08.973Z,83.73
2022-12-01T03:59:44.026Z,83.88
2022-12-01T04:00:17.050Z,83.87
2022-12-01T04:00:53.242Z,83.67
2022-12-01T04:01:26.686Z,83.50
2022-12-01T04:01:58.498Z,83.83
2022-12-01T04:02:30.169Z,83.70
2022-12-01T04:03:04.216Z,83.75
2022-12-01T04:03:36.115Z,83.54
2022-12-01T04:04:11.457Z,83.57
2022-12-01T04:04:43.045Z,83.69
2022-12-01T04:05:15.014Z,83.65
2022-12-01T04:05:46.940Z,83.56
2022-12-01T04:06:18.558Z,83.59
2022-12-01T04:06:51.005Z,83.77
2022-12-01T04:07:23.565Z,83.65
2022-12-01T04:07:55.414Z,83.63
2022-12-01T04:08:27.311Z,83.33
2022-12-01T04:08:58.889Z,83.45
2022-12-01T04:09:30.506Z,84.29
2022-12-01T04:10:02.284Z,83.98
2022-12-01T04:10:33.893Z,84.19
2022-12-01T04:11:31.007Z,84.09
2022-12-01T04:12:22.789Z,84.91
2022-12-01T04:12:59.208Z,85.15
2022-12-01T04:13:30.926Z,85.06
2022-12-01T04:14:02.505Z,85.06
2022-12-01T04:14:34.078Z,85.41
2022-12-01T04:15:09.186Z,85.34
2022-12-01T04:15:40.795Z,85.39
2022-12-01T04:16:12.437Z,85.79
2022-12-01T04:16:44.091Z,85.71
2022-12-01T04:17:15.693Z,85.59
2022-12-01T04:17:47.281Z,85.40
2022-12-01T04:18:19.791Z,85.51
2022-12-01T04:18:51.348Z,85.43
2022-12-01T04:19:22.982Z,85.68
2022-12-01T04:19:54.588Z,85.44
2022-12-01T04:20:26.242Z,85.38
2022-12-01T04:20:57.802Z,85.36
2022-12-01T04:21:29.486Z,85.52
2022-12-01T04:22:01.258Z,85.63
2022-12-01T04:22:33.670Z,85.60
2022-12-01T04:23:05.254Z,85.44
2022-12-01T04:23:55.041Z,85.41
2022-12-01T04:24:26.657Z,85.46
2022-12-01T04:24:58.250Z,85.70
2022-12-01T04:25:29.839Z,85.65
2022-12-01T04:26:02.748Z,85.68
2022-12-01T04:26:36.861Z,85.88
2022-12-01T04:27:08.441Z,86.20
2022-12-01T04:27:40.078Z,86.48
2022-12-01T04:28:11.620Z,86.63
2022-12-01T04:28:43.203Z,86.99
2022-12-01T04:29:14.838Z,87.06
2022-12-01T04:29:46.917Z,87.21
2022-12-01T04:30:18.894Z,87.44
2022-12-01T04:30:50.483Z,87.55
2022-12-01T04:31:22.156Z,87.85
2022-12-01T04:31:53.935Z,87.83
2022-12-01T04:32:25.688Z,87.83
2022-12-01T04:32:57.727Z,87.65
2022-12-01T04:33:29.684Z,87.52
2022-12-01T04:34:01.538Z,87.65
2022-12-01T04:34:33.319Z,87.82
2022-12-01T04:35:06.571Z,88.29
2022-12-01T04:35:38.163Z,88.28
2022-12-01T04:36:10.191Z,88.32
2022-12-01T04:36:41.819Z,88.45
2022-12-01T04:37:13.497Z,88.27
2022-12-01T04:37:45.055Z,88.25
2022-12-01T04:38:16.639Z,88.20
2022-12-01T04:38:48.365Z,87.88
2022-12-01T04:39:19.955Z,87.82
2022-12-01T04:39:51.965Z,87.94
2022-12-01T04:40:23.838Z,88.11
2022-12-01T04:40:55.401Z,88.36
2022-12-01T04:41:27.009Z,88.58
2022-12-01T04:41:58.583Z,88.73
2022-12-01T04:42:30.375Z,88.79
2022-12-01T04:43:01.930Z,88.70
2022-12-01T04:43:33.480Z,89.01
2022-12-01T04:44:05.282Z,88.80
2022-12-01T04:44:37.161Z,88.93
2022-12-01T04:45:09.535Z,89.07
2022-12-01T04:45:41.295Z,89.27
2022-12-01T04:46:14.193Z,89.23
2022-12-01T04:46:45.847Z,89.28
2022-12-01T04:47:17.542Z,89.33
2022-12-01T04:47:52.964Z,89.12
2022-12-01T04:48:24.563Z,89.01
2022-12-01T04:48:56.184Z,89.04
2022-12-01T04:49:28.065Z,88.98
2022-12-01T04:50:00.607Z,88.95
2022-12-01T04:50:32.183Z,88.96
2022-12-01T04:51:08.305Z,89.15
2022-12-01T04:51:39.906Z,89.28
2022-12-01T04:52:11.843Z,89.32
2022-12-01T04:52:43.405Z,89.24
2022-12-01T04:53:14.951Z,89.36
2022-12-01T04:53:46.619Z,89.39
2022-12-01T04:54:18.691Z,89.25
2022-12-01T04:54:50.265Z,89.34
2022-12-01T04:55:22.672Z,89.39
2022-12-01T04:55:54.340Z,89.25
2022-12-01T04:56:25.925Z,89.12
2022-12-01T04:56:57.525Z,89.15
2022-12-01T04:57:29.131Z,89.48
2022-12-01T04:58:02.487Z,89.52
2022-12-01T04:58:37.199Z,89.31
2022-12-01T04:59:08.901Z,89.46
2022-12-01T04:59:40.530Z,89.48
2022-12-01T05:00:13.406Z,89.48
2022-12-01T05:00:45.158Z,89.60
2022-12-01T05:01:18.560Z,89.73
2022-12-01T05:01:50.269Z,89.79
2022-12-01T05:02:21.893Z,89.79
2022-12-01T05:02:53.537Z,89.90
2022-12-01T05:03:25.137Z,90.10
2022-12-01T05:03:56.876Z,90.03
2022-12-01T05:04:28.572Z,90.08
2022-12-01T05:05:00.127Z,90.11
2022-12-01T05:05:31.717Z,89.87
2022-12-01T05:06:05.258Z,90.58
2022-12-01T05:06:37.898Z,90.67
2022-12-01T05:07:09.666Z,90.43
2022-12-01T05:07:41.402Z,90.24
2022-12-01T05:08:13.043Z,90.21
2022-12-01T05:08:44.885Z,90.15
2022-12-01T05:09:17.683Z,89.95
2022-12-01T05:09:49.849Z,90.09
2022-12-01T05:10:22.349Z,90.26
2022-12-01T05:10:56.042Z,90.11
2022-12-01T05:11:29.454Z,89.96
2022-12-01T05:12:01.008Z,90.12
2022-12-01T05:12:32.805Z,90.31
2022-12-01T05:13:05.756Z,90.20
2022-12-01T05:13:40.087Z,90.21
2022-12-01T05:14:11.746Z,90.30
2022-12-01T05:14:43.355Z,90.32
2022-12-01T05:15:15.439Z,90.51
2022-12-01T05:15:47.028Z,90.41
2022-12-01T05:16:24.229Z,90.44
2022-12-01T05:16:56.085Z,90.53
2022-12-01T05:17:36.656Z,90.62
2022-12-01T05:18:08.631Z,90.94
2022-12-01T05:18:40.994Z,91.09
2022-12-01T05:19:31.038Z,91.21
2022-12-01T05:20:21.340Z,91.38
2022-12-01T05:20:58.596Z,91.64
2022-12-01T05:21:30.177Z,91.65
2022-12-01T05:22:01.978Z,91.89
2022-12-01T05:23:03.722Z,92.35
2022-12-01T05:23:26.774Z,92.42
2022-12-01T05:23:58.348Z,92.37
2022-12-01T05:24:29.960Z,92.50
2022-12-01T05:25:01.648Z,92.46
2022-12-01T05:25:34.223Z,92.66
2022-12-01T05:26:08.047Z,92.64
2022-12-01T05:26:40.758Z,92.73
2022-12-01T05:27:12.406Z,92.40
2022-12-01T05:27:43.976Z,92.21
2022-12-01T05:28:15.560Z,92.26
2022-12-01T05:28:47.134Z,92.04
2022-12-01T05:29:18.782Z,92.02
2022-12-01T05:29:50.547Z,92.05
2022-12-01T05:30:28.230Z,92.19
2022-12-01T05:31:00.221Z,92.19
2022-12-01T05:31:32.359Z,92.14
2022-12-01T05:32:04.870Z,91.82
2022-12-01T05:32:36.525Z,91.94
2022-12-01T05:33:08.205Z,92.05
2022-12-01T05:33:39.881Z,92.21
2022-12-01T05:34:11.535Z,92.16
2022-12-01T05:34:43.135Z,92.01
2022-12-01T05:35:14.830Z,92.10
2022-12-01T05:35:48.219Z,91.65
2022-12-01T05:36:19.811Z,91.55
2022-12-01T05:36:51.410Z,91.38
2022-12-01T05:37:22.976Z,91.42
2022-12-01T05:37:54.764Z,91.25
2022-12-01T05:38:26.336Z,91.17
2022-12-01T05:38:57.894Z,91.59
2022-12-01T05:39:29.490Z,91.71
2022-12-01T05:40:01.597Z,91.83
2022-12-01T05:40:33.405Z,92.02
2022-12-01T05:41:05.135Z,92.51
2022-12-01T05:41:36.995Z,92.91
2022-12-01T05:42:08.591Z,93.47
2022-12-01T05:42:40.154Z,93.67
2022-12-01T05:43:11.703Z,93.80
2022-12-01T05:43:43.287Z,93.91
2022-12-01T05:44:14.902Z,93.94
2022-12-01T05:44:46.490Z,92.97
2022-12-01T05:45:18.137Z,92.78
2022-12-01T05:45:52.291Z,92.46
2022-12-01T05:46:24.124Z,92.05
2022-12-01T05:46:55.717Z,91.95
2022-12-01T05:47:27.288Z,92.15
2022-12-01T05:48:00.196Z,92.29
2022-12-01T05:48:31.873Z,92.21
2022-12-01T05:49:03.447Z,92.16
2022-12-01T05:49:34.994Z,91.79
2022-12-01T05:50:07.410Z,91.41
2022-12-01T05:50:40.003Z,91.26
2022-12-01T05:51:13.772Z,91.25
2022-12-01T05:51:45.337Z,91.14
2022-12-01T05:52:16.932Z,91.40
2022-12-01T05:52:48.753Z,91.34
2022-12-01T05:53:20.657Z,91.69
2022-12-01T05:53:52.295Z,92.22
2022-12-01T05:54:23.953Z,92.40
2022-12-01T05:54:55.521Z,92.20
2022-12-01T05:55:27.122Z,92.26
2022-12-01T05:55:58.705Z,92.35
2022-12-01T05:56:30.367Z,92.51
2022-12-01T05:57:02.172Z,92.08
2022-12-01T05:57:34.079Z,92.04
2022-12-01T05:58:06.002Z,91.97
2022-12-01T05:58:37.618Z,92.13
2022-12-01T05:59:09.165Z,92.26
2022-12-01T05:59:40.754Z,92.59
2022-12-01T06:00:13.612Z,92.79
2022-12-01T06:00:46.217Z,92.87
2022-12-01T06:01:18.025Z,93.05
2022-12-01T06:01:49.651Z,93.30
2022-12-01T06:02:21.874Z,93.43
2022-12-01T06:02:53.520Z,93.72
2022-12-01T06:03:25.099Z,93.93
2022-12-01T06:03:56.705Z,93.81
2022-12-01T06:04:28.355Z,93.90
2022-12-01T06:05:00.048Z,93.55
2022-12-01T06:05:31.671Z,93.29
2022-12-01T06:06:03.379Z,93.14
2022-12-01T06:06:34.943Z,93.06
2022-12-01T06:07:06.544Z,93.03
2022-12-01T06:07:40.326Z,92.93
2022-12-01T06:08:12.115Z,92.71
2022-12-01T06:08:43.717Z,92.48
2022-12-01T06:09:15.312Z,92.39
2022-12-01T06:09:47.082Z,92.86
2022-12-01T06:10:18.853Z,93.16
2022-12-01T06:10:50.459Z,93.12
2022-12-01T06:11:22.695Z,93.09
2022-12-01T06:11:54.284Z,93.04
2022-12-01T06:12:26.003Z,92.59
2022-12-01T06:12:57.564Z,92.07
2022-12-01T06:13:29.189Z,92.11
2022-12-01T06:14:00.856Z,91.97
2022-12-01T06:14:32.405Z,91.90
2022-12-01T06:15:05.011Z,91.97
2022-12-01T06:15:36.618Z,92.10
2022-12-01T06:16:08.489Z,92.17
2022-12-01T06:16:40.158Z,92.21
2022-12-01T06:17:12.257Z,92.08
2022-12-01T06:17:43.829Z,92.16
2022-12-01T06:18:15.411Z,91.97
2022-12-01T06:18:47.013Z,91.81
2022-12-01T06:19:18.567Z,91.79
2022-12-01T06:19:50.377Z,91.90
2022-12-01T06:20:23.424Z,92.10
2022-12-01T06:20:55.094Z,92.53
2022-12-01T06:21:26.647Z,92.73
2022-12-01T06:21:58.305Z,92.79
2022-12-01T06:22:29.966Z,93.26
2022-12-01T06:23:01.646Z,93.81
2022-12-01T06:23:33.287Z,94.45
2022-12-01T06:24:04.997Z,95.10
2022-12-01T06:24:36.894Z,95.61
2022-12-01T06:25:09.117Z,95.68
2022-12-01T06:25:40.677Z,95.35
2022-12-01T06:26:12.279Z,94.98
2022-12-01T06:26:43.826Z,94.90
2022-12-01T06:27:15.567Z,94.82
2022-12-01T06:27:47.257Z,94.96
2022-12-01T06:28:19.187Z,94.81
2022-12-01T06:28:50.736Z,94.86
2022-12-01T06:29:22.447Z,95.05
2022-12-01T06:29:54.274Z,94.98
2022-12-01T06:30:26.577Z,94.98
2022-12-01T06:31:03.218Z,95.35
2022-12-01T06:31:35.399Z,95.46
2022-12-01T06:32:07.134Z,95.07
2022-12-01T06:32:38.917Z,94.89
2022-12-01T06:33:10.611Z,94.84
2022-12-01T06:33:42.190Z,94.95
2022-12-01T06:34:13.749Z,94.97
2022-12-01T06:34:45.358Z,95.12
2022-12-01T06:35:16.987Z,95.62
2022-12-01T06:35:48.551Z,95.90
2022-12-01T06:36:20.195Z,96.21
2022-12-01T06:36:51.751Z,96.63
2022-12-01T06:37:23.353Z,96.61
2022-12-01T06:37:55.006Z,96.41
2022-12-01T06:38:30.331Z,96.13
2022-12-01T06:39:01.995Z,95.83
2022-12-01T06:39:33.549Z,95.71
2022-12-01T06:40:05.811Z,95.50
2022-12-01T06:40:37.402Z,95.30
2022-12-01T06:41:09.040Z,95.17
2022-12-01T06:41:40.652Z,95.10
2022-12-01T06:42:12.363Z,95.10
2022-12-01T06:42:43.955Z,95.15
2022-12-01T06:43:15.577Z,95.24
2022-12-01T06:43:47.229Z,95.49
2022-12-01T06:44:18.868Z,95.56
2022-12-01T06:44:50.483Z,95.71
2022-12-01T06:45:22.049Z,95.57
2022-12-01T06:45:59.429Z,95.76
2022-12-01T06:46:33.161Z,95.79
2022-12-01T06:47:04.929Z,95.67
2022-12-01T06:47:36.503Z,95.65
2022-12-01T06:48:08.614Z,95.77
2022-12-01T06:48:40.251Z,95.55
2022-12-01T06:49:12.775Z,95.41
2022-12-01T06:49:44.323Z,95.27
2022-12-01T06:50:16.215Z,95.07
2022-12-01T06:50:47.907Z,94.99
2022-12-01T06:51:19.475Z,95.22
2022-12-01T06:51:51.231Z,95.29
2022-12-01T06:52:22.842Z,95.60
2022-12-01T06:52:54.958Z,95.79
2022-12-01T06:53:28.475Z,95.78
2022-12-01T06:54:05.203Z,95.80
2022-12-01T06:54:37.689Z,95.81
2022-12-01T06:55:09.553Z,96.01
2022-12-01T06:55:41.603Z,95.91
2022-12-01T06:56:13.336Z,95.94
2022-12-01T06:56:46.009Z,95.69
2022-12-01T06:57:18.075Z,95.40
2022-12-01T06:57:50.121Z,95.34
2022-12-01T06:58:22.017Z,95.45
2022-12-01T06:58:53.713Z,95.29
2022-12-01T06:59:26.150Z,95.01
2022-12-01T06:59:58.212Z,94.69
2022-12-01T07:00:30.249Z,94.54
2022-12-01T07:01:09.234Z,94.35
2022-12-01T07:01:40.940Z,94.28
2022-12-01T07:02:12.855Z,94.32
2022-12-01T07:02:44.754Z,94.31
2022-12-01T07:03:16.412Z,94.25
2022-12-01T07:03:49.289Z,94.36
2022-12-01T07:04:20.860Z,94.90
2022-12-01T07:04:52.480Z,94.65
2022-12-01T07:05:24.131Z,94.77
2022-12-01T07:05:58.689Z,94.75
2022-12-01T07:06:31.427Z,94.57
2022-12-01T07:07:07.451Z,94.20
2022-12-01T07:07:39.936Z,94.10
2022-12-01T07:08:12.533Z,94.05
2022-12-01T07:08:44.934Z,93.96
2022-12-01T07:09:16.521Z,93.85
2022-12-01T07:09:48.946Z,93.75
2022-12-01T07:10:20.710Z,93.80
2022-12-01T07:11:05.033Z,93.94
2022-12-01T07:11:37.049Z,94.19
2022-12-01T07:12:08.758Z,93.96
2022-12-01T07:12:40.925Z,93.80
2022-12-01T07:13:12.466Z,93.82
2022-12-01T07:13:45.550Z,93.82
2022-12-01T07:14:22.494Z,93.71
2022-12-01T07:14:54.052Z,93.50
2022-12-01T07:15:25.729Z,93.51
2022-12-01T07:15:57.838Z,93.52
2022-12-01T07:16:29.503Z,93.33
2022-12-01T07:17:01.194Z,93.34
2022-12-01T07:17:32.815Z,93.26
2022-12-01T07:18:04.435Z,93.09
2022-12-01T07:18:37.122Z,92.89
2022-12-01T07:19:08.687Z,92.85
2022-12-01T07:19:40.298Z,92.84
2022-12-01T07:20:12.398Z,92.91
2022-12-01T07:20:44.010Z,92.77
2022-12-01T07:21:16.059Z,92.75
2022-12-01T07:21:47.712Z,92.80
2022-12-01T07:22:19.325Z,92.92
2022-12-01T07:22:50.889Z,92.92
2022-12-01T07:23:22.495Z,92.88
2022-12-01T07:23:54.878Z,92.74
2022-12-01T07:24:26.507Z,92.60
2022-12-01T07:24:58.097Z,92.67
2022-12-01T07:25:29.703Z,92.54
2022-12-01T07:26:06.822Z,92.79
2022-12-01T07:26:39.011Z,92.71
2022-12-01T07:27:10.620Z,92.67
2022-12-01T07:27:42.232Z,92.71
2022-12-01T07:28:13.802Z,92.88
2022-12-01T07:28:45.610Z,92.99
2022-12-01T07:29:17.281Z,92.81
2022-12-01T07:29:48.997Z,92.85